Alapaha, Georgia
Current Conditions -  °F | °C
As of 8:15 AM on Thursday 27 Nov 2014 (Local Time) from KTMA Reporting Station
Clear Clear  
Wind Chill:   Ceiling: Unl
Heat Index:   Visibility: 10mi
Dew Point:   Wind: 6mph
Humidity: 74%   Direction: 290°WNW
Pressure: 30.27"   Gusts: NA
Location:  31.39°N, 83.22°W
Report Text: KTMA 271315Z AUTO 29005KT 10SM CLR 07/03 A3027 RMK AO2 T00720029
Loading
Personal Weather Stations






























Interactive Weather Map New forecast layout! Learn more

10-Day Weather Forecast

Advertisements
Track Severe Weather on mobile